createdAt,value
2022-11-15T00:02:00.785Z,73.28
2022-11-15T00:04:47.133Z,71.45
2022-11-15T00:07:54.598Z,76.97
2022-11-15T00:10:39.712Z,77.10
2022-11-15T00:13:25.782Z,79.03
2022-11-15T00:16:12.177Z,67.18
2022-11-15T00:18:59.430Z,76.78
2022-11-15T00:21:45.782Z,110.32
2022-11-15T00:24:32.078Z,93.78
2022-11-15T00:27:18.513Z,62.38
2022-11-15T00:30:04.973Z,73.72
2022-11-15T00:32:51.548Z,126.78
2022-11-15T00:35:38.008Z,88.57
2022-11-15T00:38:24.277Z,85.97
2022-11-15T00:41:10.538Z,72.53
2022-11-15T00:43:56.914Z,67.80
2022-11-15T00:46:43.122Z,83.15
2022-11-15T00:49:29.160Z,62.20
2022-11-15T00:52:15.038Z,63.13
2022-11-15T00:55:01.135Z,69.05
2022-11-15T00:57:48.085Z,73.18
2022-11-15T01:00:34.316Z,80.53
2022-11-15T01:03:20.549Z,66.05
2022-11-15T01:06:07.916Z,105.07
2022-11-15T01:08:53.928Z,73.90
2022-11-15T01:11:39.894Z,74.93
2022-11-15T01:14:25.937Z,71.55
2022-11-15T01:17:12.351Z,61.05
2022-11-15T01:19:58.782Z,53.72
2022-11-15T01:22:44.742Z,62.58
2022-11-15T01:25:30.808Z,73.90
2022-11-15T01:28:16.923Z,90.22
2022-11-15T01:31:04.904Z,73.25
2022-11-15T01:33:51.720Z,163.45
2022-11-15T01:36:38.062Z,71.55
2022-11-15T01:39:24.022Z,70.55
2022-11-15T01:42:16.529Z,64.68
2022-11-15T01:45:02.940Z,62.05
2022-11-15T01:47:54.932Z,68.07
2022-11-15T01:50:40.906Z,62.85
2022-11-15T01:53:28.368Z,52.45
2022-11-15T01:56:22.017Z,56.20
2022-11-15T01:59:09.902Z,106.65
2022-11-15T02:01:56.766Z,67.63
2022-11-15T02:04:46.178Z,60.60
2022-11-15T02:07:33.754Z,67.85
2022-11-15T02:10:23.384Z,56.60
2022-11-15T02:13:10.206Z,59.43
2022-11-15T02:16:08.382Z,76.40
2022-11-15T02:19:43.178Z,76.07
2022-11-15T02:23:06.683Z,74.57
2022-11-15T02:26:25.975Z,69.85
2022-11-15T02:29:22.997Z,56.20
2022-11-15T02:32:24.939Z,64.28
2022-11-15T02:35:26.202Z,58.20
2022-11-15T02:39:03.588Z,66.13
2022-11-15T02:42:34.502Z,67.95
2022-11-15T02:48:11.509Z,88.70
2022-11-15T02:50:58.056Z,69.13
2022-11-15T02:53:45.015Z,70.10
2022-11-15T02:56:32.293Z,62.70
2022-11-15T02:59:46.016Z,56.58
2022-11-15T03:02:41.778Z,57.40
2022-11-15T03:05:40.370Z,46.95
2022-11-15T03:08:47.716Z,67.95
2022-11-15T03:11:41.669Z,56.45
2022-11-15T03:14:35.912Z,58.00
2022-11-15T03:17:57.407Z,47.63
2022-11-15T03:20:44.868Z,47.70
2022-11-15T03:23:33.037Z,44.20
2022-11-15T03:26:24.750Z,56.97
2022-11-15T03:29:16.652Z,54.72
2022-11-15T03:32:13.819Z,47.90
2022-11-15T03:35:04.380Z,45.15
2022-11-15T03:41:05.305Z,39.83
2022-11-15T03:44:01.412Z,40.53
2022-11-15T03:47:03.470Z,42.17
2022-11-15T03:49:58.078Z,50.70
2022-11-15T03:52:47.677Z,56.55
2022-11-15T03:55:34.220Z,57.58
2022-11-15T03:58:20.888Z,48.88
2022-11-15T04:01:07.059Z,47.22
2022-11-15T04:03:53.699Z,49.83
2022-11-15T04:06:39.648Z,53.17
2022-11-15T04:09:25.673Z,58.25
2022-11-15T04:12:11.755Z,52.20
2022-11-15T04:15:08.880Z,56.08
2022-11-15T04:17:57.933Z,51.10
2022-11-15T04:21:03.027Z,44.50
2022-11-15T04:24:07.290Z,51.60
2022-11-15T04:26:53.524Z,43.45
2022-11-15T04:29:39.996Z,55.28
2022-11-15T04:32:26.311Z,44.55
2022-11-15T04:35:13.029Z,48.95
2022-11-15T04:38:00.091Z,46.05
2022-11-15T04:40:46.074Z,49.33
2022-11-15T04:43:32.608Z,42.45
2022-11-15T04:46:19.792Z,39.22
2022-11-15T04:49:06.084Z,44.65
2022-11-15T04:51:52.272Z,50.00
2022-11-15T04:54:38.649Z,44.20
2022-11-15T04:57:24.942Z,43.65
2022-11-15T05:00:14.054Z,45.22
2022-11-15T05:03:19.138Z,43.92
2022-11-15T05:06:06.308Z,51.90
2022-11-15T05:08:53.197Z,44.17
2022-11-15T05:11:40.095Z,42.33
2022-11-15T05:14:26.221Z,48.08
2022-11-15T05:17:12.319Z,43.80
2022-11-15T05:19:58.547Z,43.03
2022-11-15T05:22:44.901Z,45.90
2022-11-15T05:25:30.972Z,43.58
2022-11-15T05:28:17.101Z,45.20
2022-11-15T05:31:15.675Z,56.17
2022-11-15T05:34:03.234Z,47.47
2022-11-15T05:36:49.771Z,52.30
2022-11-15T05:39:36.141Z,52.78
2022-11-15T05:42:22.362Z,48.58
2022-11-15T05:45:09.919Z,53.47
2022-11-15T05:47:58.638Z,54.97
2022-11-15T05:50:48.248Z,48.05
2022-11-15T05:53:35.128Z,68.05
2022-11-15T05:56:22.100Z,46.10
2022-11-15T05:59:10.457Z,40.88
2022-11-15T06:01:56.601Z,36.88
2022-11-15T06:04:43.336Z,46.53
2022-11-15T06:07:31.112Z,40.40
2022-11-15T06:10:17.763Z,40.05
2022-11-15T06:13:05.944Z,40.60
2022-11-15T06:15:52.137Z,40.15
2022-11-15T06:18:39.103Z,45.15
2022-11-15T06:21:25.497Z,45.03
2022-11-15T06:24:12.262Z,40.20
2022-11-15T06:26:58.745Z,39.25
2022-11-15T06:29:45.240Z,38.13
2022-11-15T06:32:32.125Z,39.00
2022-11-15T06:35:19.052Z,39.03
2022-11-15T06:38:08.424Z,41.33
2022-11-15T06:40:54.369Z,34.97
2022-11-15T06:43:41.342Z,40.95
2022-11-15T06:46:28.090Z,38.00
2022-11-15T06:49:14.748Z,33.85
2022-11-15T06:52:01.400Z,32.10
2022-11-15T06:54:47.845Z,39.40
2022-11-15T06:57:34.162Z,36.40
2022-11-15T07:00:22.019Z,48.20
2022-11-15T07:03:08.034Z,45.50
2022-11-15T07:06:04.202Z,44.53
2022-11-15T07:08:53.396Z,35.47
2022-11-15T07:11:39.391Z,37.40
2022-11-15T07:14:26.182Z,31.00
2022-11-15T07:17:12.427Z,31.10
2022-11-15T07:19:58.749Z,36.80
2022-11-15T07:22:48.177Z,31.35
2022-11-15T07:25:34.881Z,32.75
2022-11-15T07:28:21.019Z,37.10
2022-11-15T07:31:09.536Z,40.45
2022-11-15T07:33:55.469Z,33.33
2022-11-15T07:36:41.583Z,28.70
2022-11-15T07:39:28.428Z,31.92
2022-11-15T07:42:33.243Z,32.58
2022-11-15T07:45:19.453Z,33.50
2022-11-15T07:48:06.631Z,38.08
2022-11-15T07:50:52.985Z,37.88
2022-11-15T07:53:39.423Z,35.95
2022-11-15T07:56:25.658Z,33.65
2022-11-15T07:59:11.625Z,37.67
2022-11-15T08:01:58.016Z,37.90
2022-11-15T08:04:45.340Z,36.15
2022-11-15T08:07:32.638Z,44.05
2022-11-15T08:10:20.319Z,39.80
2022-11-15T08:13:11.372Z,37.60
2022-11-15T08:16:01.665Z,28.77
2022-11-15T08:21:34.788Z,28.63
2022-11-15T08:24:21.593Z,25.85
2022-11-15T08:27:16.203Z,23.20
2022-11-15T08:30:02.838Z,26.85
2022-11-15T08:32:50.260Z,26.40
2022-11-15T08:35:36.268Z,25.27
2022-11-15T08:38:22.452Z,25.98
2022-11-15T08:41:12.471Z,30.15
2022-11-15T08:43:58.442Z,25.15
2022-11-15T08:46:47.505Z,27.38
2022-11-15T08:49:33.560Z,26.33
2022-11-15T08:52:20.131Z,28.70
2022-11-15T08:55:07.739Z,27.98
2022-11-15T08:57:53.813Z,26.30
2022-11-15T09:00:40.315Z,28.13
2022-11-15T09:03:26.429Z,30.42
2022-11-15T09:06:13.521Z,28.40
2022-11-15T09:08:59.727Z,35.60
2022-11-15T09:11:47.629Z,25.88
2022-11-15T09:14:34.438Z,29.42
2022-11-15T09:20:26.865Z,25.98
2022-11-15T09:23:13.325Z,27.30
2022-11-15T09:26:02.356Z,26.77
2022-11-15T09:28:49.481Z,30.80
2022-11-15T09:31:35.407Z,21.63
2022-11-15T09:34:22.180Z,26.25
2022-11-15T09:37:08.596Z,29.40
2022-11-15T09:39:54.672Z,24.42
2022-11-15T09:43:01.825Z,23.30
2022-11-15T09:46:10.860Z,21.98
2022-11-15T09:49:09.763Z,23.23
2022-11-15T09:51:57.101Z,25.23
2022-11-15T09:57:17.369Z,24.48
2022-11-15T09:59:53.748Z,20.95
2022-11-15T10:02:39.088Z,24.45
2022-11-15T10:05:12.258Z,22.23
2022-11-15T10:08:10.792Z,24.13
2022-11-15T10:11:22.688Z,23.27
2022-11-15T10:13:48.869Z,20.88
2022-11-15T10:16:32.043Z,22.67
2022-11-15T10:19:14.514Z,22.73
2022-11-15T10:22:15.858Z,22.92
2022-11-15T10:24:47.145Z,21.27
2022-11-15T10:27:19.825Z,22.38
2022-11-15T10:29:49.705Z,25.92
2022-11-15T10:32:20.041Z,23.45
2022-11-15T10:34:50.091Z,21.88
2022-11-15T10:37:33.020Z,23.52
2022-11-15T10:40:18.706Z,22.75
2022-11-15T10:42:46.947Z,24.23
2022-11-15T10:45:30.620Z,23.88
2022-11-15T10:48:22.962Z,22.92
2022-11-15T10:50:52.941Z,26.40
2022-11-15T10:53:42.162Z,24.67
2022-11-15T10:56:16.843Z,30.45
2022-11-15T10:58:51.373Z,36.25
2022-11-15T11:01:23.013Z,34.70
2022-11-15T11:04:10.686Z,36.80
2022-11-15T11:07:00.448Z,28.48
2022-11-15T11:09:38.898Z,28.35
2022-11-15T11:12:11.080Z,25.88
2022-11-15T11:14:41.127Z,24.95
2022-11-15T11:17:23.003Z,25.58
2022-11-15T11:20:00.192Z,27.75
2022-11-15T11:22:44.534Z,26.77
2022-11-15T11:25:30.327Z,29.98
2022-11-15T11:28:25.601Z,28.85
2022-11-15T11:30:56.231Z,26.92
2022-11-15T11:33:40.177Z,28.77
2022-11-15T11:36:41.112Z,31.83
2022-11-15T11:39:39.287Z,31.38
2022-11-15T11:42:25.553Z,34.97
2022-11-15T11:45:20.815Z,31.05
2022-11-15T11:47:55.049Z,34.50
2022-11-15T11:50:28.290Z,30.77
2022-11-15T11:53:25.004Z,37.58
2022-11-15T11:56:00.322Z,33.90
2022-11-15T11:58:38.546Z,28.35
2022-11-15T12:01:12.743Z,89.53
2022-11-15T12:03:49.002Z,32.47
2022-11-15T12:06:39.030Z,35.67
2022-11-15T12:09:16.089Z,29.55
2022-11-15T12:11:56.761Z,44.90
2022-11-15T12:14:49.406Z,82.95
2022-11-15T12:17:22.014Z,31.15
2022-11-15T12:19:50.269Z,32.95
2022-11-15T12:22:23.074Z,27.95
2022-11-15T12:25:04.100Z,26.27
2022-11-15T12:27:38.771Z,27.65
2022-11-15T12:30:17.242Z,35.47
2022-11-15T12:32:58.244Z,43.92
2022-11-15T12:35:37.028Z,30.70
2022-11-15T12:38:05.757Z,28.50
2022-11-15T12:40:36.162Z,29.85
2022-11-15T12:45:40.144Z,34.08
2022-11-15T12:50:56.968Z,27.73
2022-11-15T12:53:25.437Z,30.47
2022-11-15T12:56:21.795Z,33.60
2022-11-15T12:58:51.471Z,35.20
2022-11-15T13:01:35.130Z,33.30
2022-11-15T13:04:30.760Z,33.33
2022-11-15T13:07:02.627Z,40.60
2022-11-15T13:09:33.582Z,36.08
2022-11-15T13:12:05.673Z,39.65
2022-11-15T13:14:47.026Z,44.65
2022-11-15T13:17:24.144Z,41.22
2022-11-15T13:20:18.137Z,35.10
2022-11-15T13:22:53.662Z,40.90
2022-11-15T13:25:40.020Z,49.90
2022-11-15T13:28:31.158Z,41.33
2022-11-15T13:31:28.298Z,35.92
2022-11-15T13:33:59.711Z,45.67
2022-11-15T13:36:32.012Z,43.80
2022-11-15T13:39:02.752Z,42.85
2022-11-15T13:41:33.895Z,41.97
2022-11-15T13:44:03.229Z,58.15
2022-11-15T13:46:34.061Z,61.28
2022-11-15T13:49:09.170Z,65.47
2022-11-15T13:51:41.829Z,67.50
2022-11-15T13:54:19.057Z,76.95
2022-11-15T13:56:57.423Z,82.35
2022-11-15T13:59:31.139Z,105.32
2022-11-15T14:02:04.816Z,88.53
2022-11-15T14:04:35.675Z,86.55
2022-11-15T14:07:03.996Z,67.78
2022-11-15T14:09:37.045Z,76.18
2022-11-15T14:12:26.308Z,57.63
2022-11-15T14:14:54.265Z,55.00
2022-11-15T14:17:35.994Z,68.47
2022-11-15T14:20:21.056Z,60.17
2022-11-15T14:23:01.022Z,64.85
2022-11-15T14:25:36.849Z,85.07
2022-11-15T14:28:12.603Z,73.93
2022-11-15T14:30:41.842Z,71.18
2022-11-15T14:33:35.816Z,75.30
2022-11-15T14:36:18.318Z,67.28
2022-11-15T14:38:47.047Z,61.38
2022-11-15T14:41:26.128Z,59.38
2022-11-15T14:43:54.542Z,56.80
2022-11-15T14:46:22.362Z,58.95
2022-11-15T14:48:50.037Z,59.13
2022-11-15T14:51:19.042Z,59.60
2022-11-15T14:53:48.091Z,62.28
2022-11-15T14:56:17.411Z,56.10
2022-11-15T14:58:45.363Z,51.40
2022-11-15T15:01:25.227Z,55.05
2022-11-15T15:03:56.993Z,55.15
2022-11-15T15:06:24.836Z,52.80
2022-11-15T15:08:53.133Z,53.38
2022-11-15T15:11:32.152Z,55.13
2022-11-15T15:14:02.414Z,50.42
2022-11-15T15:16:30.359Z,47.10
2022-11-15T15:18:58.103Z,42.10
2022-11-15T15:21:37.082Z,45.88
2022-11-15T15:24:06.018Z,49.45
2022-11-15T15:26:37.600Z,42.92
2022-11-15T15:29:05.838Z,39.92
2022-11-15T15:31:34.560Z,42.88
2022-11-15T15:34:02.882Z,42.88
2022-11-15T15:36:30.679Z,46.08
2022-11-15T15:38:58.734Z,47.17
2022-11-15T15:41:26.554Z,52.65
2022-11-15T15:43:54.315Z,57.53
2022-11-15T15:46:22.731Z,49.13
2022-11-15T15:48:50.558Z,51.33
2022-11-15T15:51:20.406Z,50.53
2022-11-15T15:53:49.595Z,44.90
2022-11-15T15:56:17.490Z,45.50
2022-11-15T15:58:45.611Z,43.20
2022-11-15T16:01:13.485Z,45.38
2022-11-15T16:03:41.771Z,39.83
2022-11-15T16:06:35.462Z,48.33
2022-11-15T16:09:20.649Z,40.08
2022-11-15T16:11:49.525Z,45.38
2022-11-15T16:14:17.327Z,45.30
2022-11-15T16:16:45.145Z,45.00
2022-11-15T16:19:13.553Z,43.22
2022-11-15T16:21:41.909Z,39.70
2022-11-15T16:24:09.770Z,40.88
2022-11-15T16:26:38.665Z,48.50
2022-11-15T16:29:08.044Z,51.88
2022-11-15T16:31:36.268Z,48.35
2022-11-15T16:34:04.546Z,47.00
2022-11-15T16:36:35.338Z,44.40
2022-11-15T16:39:06.623Z,42.30
2022-11-15T16:41:34.370Z,49.47
2022-11-15T16:44:02.252Z,52.53
2022-11-15T16:46:32.650Z,51.35
2022-11-15T16:49:00.441Z,53.42
2022-11-15T16:51:28.197Z,53.95
2022-11-15T16:53:55.768Z,54.45
2022-11-15T16:56:27.626Z,53.63
2022-11-15T16:59:00.064Z,62.35
2022-11-15T17:01:46.961Z,56.83
2022-11-15T17:04:16.657Z,59.83
2022-11-15T17:06:47.012Z,60.40
2022-11-15T17:11:48.880Z,57.42
2022-11-15T17:14:17.460Z,54.20
2022-11-15T17:16:45.818Z,59.75
2022-11-15T17:19:16.015Z,53.90
2022-11-15T17:21:45.063Z,55.97
2022-11-15T17:24:13.593Z,58.40
2022-11-15T17:26:43.225Z,70.18
2022-11-15T17:29:11.792Z,87.32
2022-11-15T17:31:39.988Z,86.85
2022-11-15T17:34:09.409Z,117.55
2022-11-15T17:36:40.494Z,113.78
2022-11-15T17:39:09.792Z,109.35
2022-11-15T17:41:37.843Z,120.43
2022-11-15T17:44:05.950Z,93.35
2022-11-15T17:46:34.691Z,103.43
2022-11-15T17:49:02.729Z,103.55
2022-11-15T17:51:30.803Z,92.65
2022-11-15T17:53:59.097Z,102.97
2022-11-15T17:56:28.953Z,116.18
2022-11-15T17:59:05.721Z,113.72
2022-11-15T18:01:38.013Z,138.55
2022-11-15T18:04:09.472Z,107.55
2022-11-15T18:06:38.097Z,113.50
2022-11-15T18:09:07.514Z,119.65
2022-11-15T18:11:41.729Z,116.05
2022-11-15T18:14:14.305Z,130.82
2022-11-15T18:16:42.807Z,148.52
2022-11-15T18:19:14.353Z,138.02
2022-11-15T18:21:56.699Z,134.20
2022-11-15T18:24:28.563Z,125.97
2022-11-15T18:26:58.076Z,109.80
2022-11-15T18:29:26.632Z,89.23
2022-11-15T18:31:56.710Z,128.40
2022-11-15T18:34:27.599Z,105.97
2022-11-15T18:36:55.553Z,100.38
2022-11-15T18:39:23.569Z,112.50
2022-11-15T18:41:52.876Z,101.40
2022-11-15T18:44:22.569Z,112.50
2022-11-15T18:46:52.260Z,107.55
2022-11-15T18:49:20.745Z,92.28
2022-11-15T18:51:52.353Z,85.60
2022-11-15T18:54:20.602Z,88.00
2022-11-15T18:56:48.871Z,87.13
2022-11-15T18:59:18.078Z,113.53
2022-11-15T19:01:50.334Z,82.00
2022-11-15T19:04:20.232Z,94.38
2022-11-15T19:06:50.227Z,89.00
2022-11-15T19:09:19.856Z,73.32
2022-11-15T19:11:51.936Z,64.30
2022-11-15T19:14:24.605Z,78.57
2022-11-15T19:16:53.481Z,82.90
2022-11-15T19:19:27.920Z,91.72
2022-11-15T19:21:57.904Z,90.97
2022-11-15T19:24:27.563Z,103.13
2022-11-15T19:26:56.277Z,93.83
2022-11-15T19:29:24.721Z,110.07
2022-11-15T19:31:55.396Z,114.72
2022-11-15T19:34:24.028Z,126.03
2022-11-15T19:36:54.947Z,122.85
2022-11-15T19:39:23.219Z,105.20
2022-11-15T19:41:54.142Z,106.43
2022-11-15T19:44:23.462Z,116.40
2022-11-15T19:46:51.923Z,135.77
2022-11-15T19:49:19.988Z,128.40
2022-11-15T19:51:48.925Z,119.60
2022-11-15T19:54:17.592Z,136.30
2022-11-15T19:56:49.139Z,142.27
2022-11-15T19:59:18.485Z,138.10
2022-11-15T20:01:48.189Z,152.93
2022-11-15T20:04:17.823Z,145.57
2022-11-15T20:06:47.163Z,150.02
2022-11-15T20:09:17.560Z,142.15
2022-11-15T20:11:45.867Z,142.73
2022-11-15T20:14:14.328Z,156.77
2022-11-15T20:16:43.044Z,128.50
2022-11-15T20:19:12.725Z,124.65
2022-11-15T20:21:40.886Z,103.50
2022-11-15T20:24:10.656Z,115.60
2022-11-15T20:26:40.058Z,81.88
2022-11-15T20:29:10.305Z,99.87
2022-11-15T20:31:38.458Z,88.80
2022-11-15T20:34:07.015Z,87.00
2022-11-15T20:36:37.303Z,94.90
2022-11-15T20:39:07.084Z,113.70
2022-11-15T20:41:34.988Z,118.30
2022-11-15T20:44:03.842Z,129.48
2022-11-15T20:46:31.744Z,131.73
2022-11-15T20:49:01.081Z,129.73
2022-11-15T20:51:29.051Z,153.05
2022-11-15T20:54:00.283Z,134.43
2022-11-15T20:56:29.042Z,109.25
2022-11-15T20:58:57.132Z,108.03
2022-11-15T21:01:26.549Z,112.00
2022-11-15T21:03:58.916Z,109.80
2022-11-15T21:06:28.249Z,122.57
2022-11-15T21:09:15.487Z,135.07
2022-11-15T21:12:03.607Z,220.10
2022-11-15T21:14:34.222Z,181.30
2022-11-15T21:17:03.089Z,152.75
2022-11-15T21:19:35.538Z,210.85
2022-11-15T21:22:08.814Z,309.50
2022-11-15T21:24:36.871Z,317.02
2022-11-15T21:27:07.497Z,201.98
2022-11-15T21:29:41.119Z,222.77
2022-11-15T21:32:10.670Z,233.32
2022-11-15T21:34:38.917Z,264.15
2022-11-15T21:37:08.755Z,180.68
2022-11-15T21:39:42.781Z,123.53
2022-11-15T21:42:11.812Z,132.73
2022-11-15T21:44:50.662Z,130.45
2022-11-15T21:47:19.467Z,132.18
2022-11-15T21:49:48.770Z,146.15
2022-11-15T21:52:17.894Z,124.93
2022-11-15T21:54:46.804Z,138.13
2022-11-15T21:57:21.431Z,134.30
2022-11-15T22:00:12.167Z,134.27
2022-11-15T22:02:46.934Z,124.72
2022-11-15T22:05:27.751Z,138.02
2022-11-15T22:10:23.023Z,112.15
2022-11-15T22:12:50.749Z,111.13
2022-11-15T22:15:18.438Z,115.35
2022-11-15T22:17:58.164Z,110.88
2022-11-15T22:20:44.161Z,110.30
2022-11-15T22:23:12.996Z,111.32
2022-11-15T22:25:41.034Z,122.00
2022-11-15T22:28:09.136Z,104.80
2022-11-15T22:30:37.151Z,101.28
2022-11-15T22:33:04.915Z,101.18
2022-11-15T22:35:35.179Z,92.90
2022-11-15T22:38:02.841Z,103.82
2022-11-15T22:40:31.205Z,94.22
2022-11-15T22:42:59.504Z,117.88
2022-11-15T22:45:27.145Z,95.78
2022-11-15T22:47:54.904Z,94.65
2022-11-15T22:50:23.767Z,208.05
2022-11-15T22:52:51.813Z,108.13
2022-11-15T22:55:19.458Z,96.03
2022-11-15T22:57:47.132Z,96.22
2022-11-15T23:00:16.512Z,92.03
2022-11-15T23:02:44.122Z,99.90
2022-11-15T23:05:12.260Z,95.88
2022-11-15T23:07:39.955Z,110.97
2022-11-15T23:10:26.843Z,90.82
2022-11-15T23:13:12.869Z,103.10
2022-11-15T23:15:59.247Z,97.78
2022-11-15T23:18:27.231Z,98.55
2022-11-15T23:20:55.466Z,102.65
2022-11-15T23:23:23.125Z,104.82
2022-11-15T23:25:59.370Z,102.32
2022-11-15T23:28:35.886Z,94.80
2022-11-15T23:31:25.486Z,105.28
2022-11-15T23:33:59.605Z,116.85
2022-11-15T23:36:28.666Z,99.70
2022-11-15T23:38:56.731Z,103.43
2022-11-15T23:41:24.944Z,100.03
2022-11-15T23:43:53.085Z,94.72
2022-11-15T23:46:21.655Z,108.15
2022-11-15T23:48:49.459Z,100.97
2022-11-15T23:51:17.336Z,99.47
2022-11-15T23:53:45.032Z,97.22
2022-11-15T23:56:17.736Z,97.18
2022-11-15T23:58:46.587Z,96.97
